sensor_id;sensor_type;location;lat;lon;timestamp;P1;durP1;ratioP1;P2;durP2;ratioP2
13114;SDS011;6623;52.120;8.660;2023-04-05T00:01:25;8.00;;;3.87;;
13114;SDS011;6623;52.120;8.660;2023-04-05T00:03:52;6.87;;;4.27;;
13114;SDS011;6623;52.120;8.660;2023-04-05T00:06:22;5.30;;;3.80;;
13114;SDS011;6623;52.120;8.660;2023-04-05T00:08:53;5.40;;;4.13;;
13114;SDS011;6623;52.120;8.660;2023-04-05T00:11:29;7.77;;;4.17;;
13114;SDS011;6623;52.120;8.660;2023-04-05T00:14:00;6.20;;;3.70;;
13114;SDS011;6623;52.120;8.660;2023-04-05T00:16:27;5.50;;;3.90;;
13114;SDS011;6623;52.120;8.660;2023-04-05T00:18:53;7.57;;;4.00;;
13114;SDS011;6623;52.120;8.660;2023-04-05T00:21:20;9.33;;;3.90;;
13114;SDS011;6623;52.120;8.660;2023-04-05T00:23:47;6.00;;;3.90;;
13114;SDS011;6623;52.120;8.660;2023-04-05T00:26:15;5.60;;;3.93;;
13114;SDS011;6623;52.120;8.660;2023-04-05T00:28:41;4.63;;;3.37;;
13114;SDS011;6623;52.120;8.660;2023-04-05T00:31:06;5.57;;;3.40;;
13114;SDS011;6623;52.120;8.660;2023-04-05T00:33:32;4.30;;;3.33;;
13114;SDS011;6623;52.120;8.660;2023-04-05T00:35:57;5.43;;;3.87;;
13114;SDS011;6623;52.120;8.660;2023-04-05T00:38:33;6.40;;;3.57;;
13114;SDS011;6623;52.120;8.660;2023-04-05T00:40:58;5.77;;;3.60;;
13114;SDS011;6623;52.120;8.660;2023-04-05T00:43:24;5.00;;;3.70;;
13114;SDS011;6623;52.120;8.660;2023-04-05T00:45:49;5.53;;;3.57;;
13114;SDS011;6623;52.120;8.660;2023-04-05T00:48:15;4.90;;;3.23;;
13114;SDS011;6623;52.120;8.660;2023-04-05T00:50:41;7.13;;;3.73;;
13114;SDS011;6623;52.120;8.660;2023-04-05T00:53:07;6.37;;;3.77;;
13114;SDS011;6623;52.120;8.660;2023-04-05T00:55:33;5.90;;;3.50;;
13114;SDS011;6623;52.120;8.660;2023-04-05T00:58:00;4.80;;;3.60;;
13114;SDS011;6623;52.120;8.660;2023-04-05T01:00:25;5.47;;;4.10;;
13114;SDS011;6623;52.120;8.660;2023-04-05T01:02:51;6.57;;;3.90;;
13114;SDS011;6623;52.120;8.660;2023-04-05T01:07:53;5.90;;;3.57;;
13114;SDS011;6623;52.120;8.660;2023-04-05T01:10:34;5.53;;;3.73;;
13114;SDS011;6623;52.120;8.660;2023-04-05T01:13:02;4.30;;;3.87;;
13114;SDS011;6623;52.120;8.660;2023-04-05T01:15:28;5.80;;;4.00;;
13114;SDS011;6623;52.120;8.660;2023-04-05T01:17:53;7.63;;;3.90;;
13114;SDS011;6623;52.120;8.660;2023-04-05T01:20:21;4.20;;;3.60;;
13114;SDS011;6623;52.120;8.660;2023-04-05T01:34:01;5.23;;;3.80;;
13114;SDS011;6623;52.120;8.660;2023-04-05T01:36:48;7.10;;;4.20;;
13114;SDS011;6623;52.120;8.660;2023-04-05T01:39:19;5.83;;;3.70;;
13114;SDS011;6623;52.120;8.660;2023-04-05T01:41:45;5.30;;;3.30;;
13114;SDS011;6623;52.120;8.660;2023-04-05T01:44:11;4.33;;;3.93;;
13114;SDS011;6623;52.120;8.660;2023-04-05T01:46:36;6.00;;;3.93;;
13114;SDS011;6623;52.120;8.660;2023-04-05T01:49:03;8.10;;;4.13;;
13114;SDS011;6623;52.120;8.660;2023-04-05T01:51:29;4.43;;;3.53;;
13114;SDS011;6623;52.120;8.660;2023-04-05T01:53:55;6.23;;;4.00;;
13114;SDS011;6623;52.120;8.660;2023-04-05T01:56:21;5.73;;;4.07;;
13114;SDS011;6623;52.120;8.660;2023-04-05T01:58:46;6.20;;;3.87;;
13114;SDS011;6623;52.120;8.660;2023-04-05T02:01:12;5.13;;;3.80;;
13114;SDS011;6623;52.120;8.660;2023-04-05T02:03:37;6.07;;;3.67;;
13114;SDS011;6623;52.120;8.660;2023-04-05T02:06:03;5.13;;;3.90;;
13114;SDS011;6623;52.120;8.660;2023-04-05T02:08:29;5.93;;;3.80;;
13114;SDS011;6623;52.120;8.660;2023-04-05T02:10:55;5.57;;;4.10;;
13114;SDS011;6623;52.120;8.660;2023-04-05T02:13:21;6.77;;;3.80;;
13114;SDS011;6623;52.120;8.660;2023-04-05T02:15:47;7.00;;;4.20;;
13114;SDS011;6623;52.120;8.660;2023-04-05T02:18:14;5.40;;;3.77;;
13114;SDS011;6623;52.120;8.660;2023-04-05T02:20:40;5.50;;;4.03;;
13114;SDS011;6623;52.120;8.660;2023-04-05T02:23:05;6.00;;;4.13;;
13114;SDS011;6623;52.120;8.660;2023-04-05T02:25:32;4.70;;;3.70;;
13114;SDS011;6623;52.120;8.660;2023-04-05T02:27:57;8.33;;;4.03;;
13114;SDS011;6623;52.120;8.660;2023-04-05T02:30:23;5.07;;;3.83;;
13114;SDS011;6623;52.120;8.660;2023-04-05T02:32:48;5.60;;;4.03;;
13114;SDS011;6623;52.120;8.660;2023-04-05T02:35:14;7.27;;;4.07;;
13114;SDS011;6623;52.120;8.660;2023-04-05T02:37:41;4.93;;;3.57;;
13114;SDS011;6623;52.120;8.660;2023-04-05T02:40:07;6.97;;;4.00;;
13114;SDS011;6623;52.120;8.660;2023-04-05T02:42:36;4.97;;;3.93;;
13114;SDS011;6623;52.120;8.660;2023-04-05T02:45:01;5.67;;;4.10;;
13114;SDS011;6623;52.120;8.660;2023-04-05T02:47:27;6.50;;;3.90;;
13114;SDS011;6623;52.120;8.660;2023-04-05T02:49:52;6.00;;;4.27;;
13114;SDS011;6623;52.120;8.660;2023-04-05T02:52:18;5.20;;;3.67;;
13114;SDS011;6623;52.120;8.660;2023-04-05T02:54:43;5.10;;;3.43;;
13114;SDS011;6623;52.120;8.660;2023-04-05T02:57:10;5.57;;;3.67;;
13114;SDS011;6623;52.120;8.660;2023-04-05T02:59:37;5.03;;;3.80;;
13114;SDS011;6623;52.120;8.660;2023-04-05T03:02:06;5.17;;;3.47;;
13114;SDS011;6623;52.120;8.660;2023-04-05T03:04:32;5.93;;;3.77;;
13114;SDS011;6623;52.120;8.660;2023-04-05T03:07:01;4.47;;;3.53;;
13114;SDS011;6623;52.120;8.660;2023-04-05T03:09:30;6.63;;;3.77;;
13114;SDS011;6623;52.120;8.660;2023-04-05T03:12:00;6.33;;;4.30;;
13114;SDS011;6623;52.120;8.660;2023-04-05T03:14:28;7.80;;;3.90;;
13114;SDS011;6623;52.120;8.660;2023-04-05T03:16:54;10.57;;;3.87;;
13114;SDS011;6623;52.120;8.660;2023-04-05T03:19:19;6.80;;;4.00;;
13114;SDS011;6623;52.120;8.660;2023-04-05T03:21:46;3.97;;;3.27;;
13114;SDS011;6623;52.120;8.660;2023-04-05T03:24:12;5.60;;;3.90;;
13114;SDS011;6623;52.120;8.660;2023-04-05T03:26:38;4.97;;;3.97;;
13114;SDS011;6623;52.120;8.660;2023-04-05T03:29:04;7.73;;;4.10;;
13114;SDS011;6623;52.120;8.660;2023-04-05T03:31:30;6.47;;;3.90;;
13114;SDS011;6623;52.120;8.660;2023-04-05T03:33:56;7.60;;;4.10;;
13114;SDS011;6623;52.120;8.660;2023-04-05T03:36:21;6.30;;;4.33;;
13114;SDS011;6623;52.120;8.660;2023-04-05T03:38:47;5.10;;;4.20;;
13114;SDS011;6623;52.120;8.660;2023-04-05T03:41:14;5.67;;;3.87;;
13114;SDS011;6623;52.120;8.660;2023-04-05T03:43:40;5.23;;;3.70;;
13114;SDS011;6623;52.120;8.660;2023-04-05T03:46:05;7.23;;;4.03;;
13114;SDS011;6623;52.120;8.660;2023-04-05T03:48:31;6.33;;;4.47;;
13114;SDS011;6623;52.120;8.660;2023-04-05T03:51:00;7.57;;;4.38;;
13114;SDS011;6623;52.120;8.660;2023-04-05T03:53:25;6.70;;;4.17;;
13114;SDS011;6623;52.120;8.660;2023-04-05T03:55:53;7.90;;;4.40;;
13114;SDS011;6623;52.120;8.660;2023-04-05T03:58:19;5.35;;;4.07;;
13114;SDS011;6623;52.120;8.660;2023-04-05T04:00:46;5.67;;;4.30;;
13114;SDS011;6623;52.120;8.660;2023-04-05T04:03:11;5.20;;;3.97;;
13114;SDS011;6623;52.120;8.660;2023-04-05T04:05:38;10.52;;;3.92;;
13114;SDS011;6623;52.120;8.660;2023-04-05T04:08:04;5.90;;;3.73;;
13114;SDS011;6623;52.120;8.660;2023-04-05T04:10:30;7.57;;;4.18;;
13114;SDS011;6623;52.120;8.660;2023-04-05T04:12:56;6.17;;;4.00;;
13114;SDS011;6623;52.120;8.660;2023-04-05T04:15:21;4.90;;;3.73;;
13114;SDS011;6623;52.120;8.660;2023-04-05T04:17:47;8.90;;;4.40;;
13114;SDS011;6623;52.120;8.660;2023-04-05T04:20:13;6.53;;;4.13;;
13114;SDS011;6623;52.120;8.660;2023-04-05T04:22:38;8.33;;;4.23;;
13114;SDS011;6623;52.120;8.660;2023-04-05T04:25:05;8.17;;;4.60;;
13114;SDS011;6623;52.120;8.660;2023-04-05T04:27:35;6.03;;;4.35;;
13114;SDS011;6623;52.120;8.660;2023-04-05T04:30:04;7.00;;;4.50;;
13114;SDS011;6623;52.120;8.660;2023-04-05T04:32:33;8.30;;;5.40;;
13114;SDS011;6623;52.120;8.660;2023-04-05T04:35:18;5.72;;;4.50;;
13114;SDS011;6623;52.120;8.660;2023-04-05T04:37:55;6.50;;;4.50;;
13114;SDS011;6623;52.120;8.660;2023-04-05T04:40:23;6.40;;;4.53;;
13114;SDS011;6623;52.120;8.660;2023-04-05T04:42:49;6.10;;;4.22;;
13114;SDS011;6623;52.120;8.660;2023-04-05T04:45:16;7.03;;;4.20;;
13114;SDS011;6623;52.120;8.660;2023-04-05T04:47:46;6.45;;;4.38;;
13114;SDS011;6623;52.120;8.660;2023-04-05T04:50:13;7.95;;;4.53;;
13114;SDS011;6623;52.120;8.660;2023-04-05T04:52:40;6.05;;;4.82;;
13114;SDS011;6623;52.120;8.660;2023-04-05T04:55:09;8.15;;;4.80;;
13114;SDS011;6623;52.120;8.660;2023-04-05T04:57:41;8.05;;;5.03;;
13114;SDS011;6623;52.120;8.660;2023-04-05T05:00:10;5.30;;;4.30;;
13114;SDS011;6623;52.120;8.660;2023-04-05T05:02:40;6.25;;;4.97;;
13114;SDS011;6623;52.120;8.660;2023-04-05T05:05:07;5.47;;;4.13;;
13114;SDS011;6623;52.120;8.660;2023-04-05T05:07:34;6.57;;;4.25;;
13114;SDS011;6623;52.120;8.660;2023-04-05T05:10:00;5.97;;;4.50;;
13114;SDS011;6623;52.120;8.660;2023-04-05T05:12:26;7.47;;;4.35;;
13114;SDS011;6623;52.120;8.660;2023-04-05T05:14:53;5.72;;;4.57;;
13114;SDS011;6623;52.120;8.660;2023-04-05T05:17:19;7.40;;;4.53;;
13114;SDS011;6623;52.120;8.660;2023-04-05T05:19:44;6.50;;;4.70;;
13114;SDS011;6623;52.120;8.660;2023-04-05T05:22:10;5.73;;;4.43;;
13114;SDS011;6623;52.120;8.660;2023-04-05T05:24:36;5.37;;;4.83;;
13114;SDS011;6623;52.120;8.660;2023-04-05T05:27:01;5.83;;;4.50;;
13114;SDS011;6623;52.120;8.660;2023-04-05T05:29:27;6.07;;;5.33;;
13114;SDS011;6623;52.120;8.660;2023-04-05T05:31:53;8.63;;;4.87;;
13114;SDS011;6623;52.120;8.660;2023-04-05T05:34:19;9.73;;;5.28;;
13114;SDS011;6623;52.120;8.660;2023-04-05T05:36:45;6.05;;;4.45;;
13114;SDS011;6623;52.120;8.660;2023-04-05T05:39:11;7.77;;;5.03;;
13114;SDS011;6623;52.120;8.660;2023-04-05T05:41:37;6.93;;;4.27;;
13114;SDS011;6623;52.120;8.660;2023-04-05T05:44:02;6.57;;;4.73;;
13114;SDS011;6623;52.120;8.660;2023-04-05T05:46:28;6.23;;;4.90;;
13114;SDS011;6623;52.120;8.660;2023-04-05T05:48:53;6.83;;;4.43;;
13114;SDS011;6623;52.120;8.660;2023-04-05T05:51:19;6.67;;;4.33;;
13114;SDS011;6623;52.120;8.660;2023-04-05T05:53:45;8.00;;;4.53;;
13114;SDS011;6623;52.120;8.660;2023-04-05T05:56:11;7.50;;;4.80;;
13114;SDS011;6623;52.120;8.660;2023-04-05T05:58:36;6.43;;;4.93;;
13114;SDS011;6623;52.120;8.660;2023-04-05T06:01:02;5.50;;;4.50;;
13114;SDS011;6623;52.120;8.660;2023-04-05T06:03:29;8.00;;;5.30;;
13114;SDS011;6623;52.120;8.660;2023-04-05T06:05:55;6.13;;;5.40;;
13114;SDS011;6623;52.120;8.660;2023-04-05T06:08:22;8.60;;;6.50;;
13114;SDS011;6623;52.120;8.660;2023-04-05T06:10:48;8.00;;;6.20;;
13114;SDS011;6623;52.120;8.660;2023-04-05T06:13:14;7.87;;;6.17;;
13114;SDS011;6623;52.120;8.660;2023-04-05T06:15:43;10.70;;;6.63;;
13114;SDS011;6623;52.120;8.660;2023-04-05T06:18:08;11.33;;;6.47;;
13114;SDS011;6623;52.120;8.660;2023-04-05T06:20:34;9.83;;;6.23;;
13114;SDS011;6623;52.120;8.660;2023-04-05T06:23:04;10.90;;;6.67;;
13114;SDS011;6623;52.120;8.660;2023-04-05T06:25:30;9.07;;;6.10;;
13114;SDS011;6623;52.120;8.660;2023-04-05T06:27:55;14.60;;;6.97;;
13114;SDS011;6623;52.120;8.660;2023-04-05T06:30:21;10.70;;;5.93;;
13114;SDS011;6623;52.120;8.660;2023-04-05T06:32:47;8.07;;;6.00;;
13114;SDS011;6623;52.120;8.660;2023-04-05T06:35:18;8.53;;;6.33;;
13114;SDS011;6623;52.120;8.660;2023-04-05T06:37:46;11.87;;;5.97;;
13114;SDS011;6623;52.120;8.660;2023-04-05T06:40:12;11.30;;;6.03;;
13114;SDS011;6623;52.120;8.660;2023-04-05T06:42:39;9.07;;;5.47;;
13114;SDS011;6623;52.120;8.660;2023-04-05T06:45:05;6.70;;;4.93;;
13114;SDS011;6623;52.120;8.660;2023-04-05T06:47:37;6.10;;;4.90;;
13114;SDS011;6623;52.120;8.660;2023-04-05T06:50:05;6.07;;;4.47;;
13114;SDS011;6623;52.120;8.660;2023-04-05T06:52:32;8.60;;;4.63;;
13114;SDS011;6623;52.120;8.660;2023-04-05T06:54:58;5.97;;;4.70;;
13114;SDS011;6623;52.120;8.660;2023-04-05T06:57:24;5.63;;;3.90;;
13114;SDS011;6623;52.120;8.660;2023-04-05T06:59:51;7.60;;;4.33;;
13114;SDS011;6623;52.120;8.660;2023-04-05T07:02:17;5.97;;;4.30;;
13114;SDS011;6623;52.120;8.660;2023-04-05T07:04:43;7.37;;;4.60;;
13114;SDS011;6623;52.120;8.660;2023-04-05T07:07:08;9.30;;;4.53;;
13114;SDS011;6623;52.120;8.660;2023-04-05T07:09:34;5.87;;;4.60;;
13114;SDS011;6623;52.120;8.660;2023-04-05T07:12:01;6.63;;;4.63;;
13114;SDS011;6623;52.120;8.660;2023-04-05T07:14:29;6.17;;;4.80;;
13114;SDS011;6623;52.120;8.660;2023-04-05T07:16:55;6.33;;;4.33;;
13114;SDS011;6623;52.120;8.660;2023-04-05T07:19:20;6.07;;;4.23;;
13114;SDS011;6623;52.120;8.660;2023-04-05T07:21:46;5.53;;;3.83;;
13114;SDS011;6623;52.120;8.660;2023-04-05T07:24:12;4.50;;;3.57;;
13114;SDS011;6623;52.120;8.660;2023-04-05T07:26:38;4.73;;;3.47;;
13114;SDS011;6623;52.120;8.660;2023-04-05T07:29:04;7.37;;;3.40;;
13114;SDS011;6623;52.120;8.660;2023-04-05T07:31:30;5.77;;;3.60;;
13114;SDS011;6623;52.120;8.660;2023-04-05T07:33:56;5.17;;;3.40;;
13114;SDS011;6623;52.120;8.660;2023-04-05T07:36:23;7.93;;;3.87;;
13114;SDS011;6623;52.120;8.660;2023-04-05T07:38:51;6.20;;;3.53;;
13114;SDS011;6623;52.120;8.660;2023-04-05T07:41:17;8.77;;;3.93;;
13114;SDS011;6623;52.120;8.660;2023-04-05T07:43:44;5.23;;;3.13;;
13114;SDS011;6623;52.120;8.660;2023-04-05T07:46:10;4.27;;;2.90;;
13114;SDS011;6623;52.120;8.660;2023-04-05T07:48:36;5.47;;;3.13;;
13114;SDS011;6623;52.120;8.660;2023-04-05T07:51:05;6.87;;;3.00;;
13114;SDS011;6623;52.120;8.660;2023-04-05T07:53:32;4.80;;;3.07;;
13114;SDS011;6623;52.120;8.660;2023-04-05T07:56:06;3.77;;;3.30;;
13114;SDS011;6623;52.120;8.660;2023-04-05T07:58:33;2.73;;;2.53;;
13114;SDS011;6623;52.120;8.660;2023-04-05T08:00:59;4.93;;;2.70;;
13114;SDS011;6623;52.120;8.660;2023-04-05T08:03:25;5.40;;;2.63;;
13114;SDS011;6623;52.120;8.660;2023-04-05T08:05:51;4.40;;;3.43;;
13114;SDS011;6623;52.120;8.660;2023-04-05T08:08:17;3.90;;;2.47;;
13114;SDS011;6623;52.120;8.660;2023-04-05T08:10:42;3.37;;;2.80;;
13114;SDS011;6623;52.120;8.660;2023-04-05T08:13:08;3.03;;;2.37;;
13114;SDS011;6623;52.120;8.660;2023-04-05T08:15:33;4.53;;;2.60;;
13114;SDS011;6623;52.120;8.660;2023-04-05T08:17:59;3.30;;;2.50;;
13114;SDS011;6623;52.120;8.660;2023-04-05T08:20:25;2.83;;;2.40;;
13114;SDS011;6623;52.120;8.660;2023-04-05T08:22:51;4.00;;;2.53;;
13114;SDS011;6623;52.120;8.660;2023-04-05T08:25:16;3.60;;;2.83;;
13114;SDS011;6623;52.120;8.660;2023-04-05T08:27:42;3.20;;;2.60;;
13114;SDS011;6623;52.120;8.660;2023-04-05T08:30:08;6.23;;;2.43;;
13114;SDS011;6623;52.120;8.660;2023-04-05T08:32:34;3.37;;;2.50;;
13114;SDS011;6623;52.120;8.660;2023-04-05T08:34:59;5.63;;;2.43;;
13114;SDS011;6623;52.120;8.660;2023-04-05T08:37:25;4.23;;;2.50;;
13114;SDS011;6623;52.120;8.660;2023-04-05T08:39:51;3.47;;;2.27;;
13114;SDS011;6623;52.120;8.660;2023-04-05T08:42:18;5.13;;;2.43;;
13114;SDS011;6623;52.120;8.660;2023-04-05T08:44:53;4.20;;;2.50;;
13114;SDS011;6623;52.120;8.660;2023-04-05T08:47:21;3.93;;;2.80;;
13114;SDS011;6623;52.120;8.660;2023-04-05T08:49:48;4.00;;;2.13;;
13114;SDS011;6623;52.120;8.660;2023-04-05T08:52:13;3.40;;;2.30;;
13114;SDS011;6623;52.120;8.660;2023-04-05T08:54:39;4.10;;;2.30;;
13114;SDS011;6623;52.120;8.660;2023-04-05T08:57:06;2.90;;;2.17;;
13114;SDS011;6623;52.120;8.660;2023-04-05T08:59:32;4.23;;;2.40;;
13114;SDS011;6623;52.120;8.660;2023-04-05T09:02:00;3.07;;;2.43;;
13114;SDS011;6623;52.120;8.660;2023-04-05T09:04:31;4.13;;;2.50;;
13114;SDS011;6623;52.120;8.660;2023-04-05T09:07:02;3.27;;;2.00;;
13114;SDS011;6623;52.120;8.660;2023-04-05T09:09:31;2.97;;;2.53;;
13114;SDS011;6623;52.120;8.660;2023-04-05T09:11:59;6.07;;;2.40;;
13114;SDS011;6623;52.120;8.660;2023-04-05T09:14:27;3.47;;;2.00;;
13114;SDS011;6623;52.120;8.660;2023-04-05T09:16:55;3.23;;;2.00;;
13114;SDS011;6623;52.120;8.660;2023-04-05T09:19:22;3.77;;;2.30;;
13114;SDS011;6623;52.120;8.660;2023-04-05T09:22:01;2.70;;;2.00;;
13114;SDS011;6623;52.120;8.660;2023-04-05T09:24:37;4.00;;;2.60;;
13114;SDS011;6623;52.120;8.660;2023-04-05T09:27:13;3.40;;;2.23;;
13114;SDS011;6623;52.120;8.660;2023-04-05T09:29:41;3.17;;;2.13;;
13114;SDS011;6623;52.120;8.660;2023-04-05T09:32:09;3.10;;;2.17;;
13114;SDS011;6623;52.120;8.660;2023-04-05T09:34:36;4.43;;;2.60;;
13114;SDS011;6623;52.120;8.660;2023-04-05T09:37:02;4.13;;;2.63;;
13114;SDS011;6623;52.120;8.660;2023-04-05T09:39:36;4.00;;;2.53;;
13114;SDS011;6623;52.120;8.660;2023-04-05T09:42:12;2.40;;;2.00;;
13114;SDS011;6623;52.120;8.660;2023-04-05T09:44:47;3.23;;;2.20;;
13114;SDS011;6623;52.120;8.660;2023-04-05T09:47:16;3.30;;;2.43;;
13114;SDS011;6623;52.120;8.660;2023-04-05T09:49:43;5.63;;;2.80;;
13114;SDS011;6623;52.120;8.660;2023-04-05T09:52:25;3.40;;;2.40;;
13114;SDS011;6623;52.120;8.660;2023-04-05T09:54:59;4.10;;;2.30;;
13114;SDS011;6623;52.120;8.660;2023-04-05T09:57:26;3.80;;;2.63;;
13114;SDS011;6623;52.120;8.660;2023-04-05T09:59:56;3.27;;;2.80;;
13114;SDS011;6623;52.120;8.660;2023-04-05T10:02:22;4.33;;;2.63;;
13114;SDS011;6623;52.120;8.660;2023-04-05T10:04:48;3.07;;;2.53;;
13114;SDS011;6623;52.120;8.660;2023-04-05T10:07:14;3.37;;;2.70;;
13114;SDS011;6623;52.120;8.660;2023-04-05T10:09:42;5.17;;;2.50;;
13114;SDS011;6623;52.120;8.660;2023-04-05T10:12:09;4.30;;;2.70;;
13114;SDS011;6623;52.120;8.660;2023-04-05T10:14:40;3.47;;;2.50;;
13114;SDS011;6623;52.120;8.660;2023-04-05T10:22:29;3.63;;;2.67;;
13114;SDS011;6623;52.120;8.660;2023-04-05T10:25:04;3.43;;;2.73;;
13114;SDS011;6623;52.120;8.660;2023-04-05T10:27:43;3.20;;;2.57;;
13114;SDS011;6623;52.120;8.660;2023-04-05T10:30:16;5.37;;;2.33;;
13114;SDS011;6623;52.120;8.660;2023-04-05T10:33:00;3.70;;;2.30;;
13114;SDS011;6623;52.120;8.660;2023-04-05T10:35:39;4.40;;;2.73;;
13114;SDS011;6623;52.120;8.660;2023-04-05T10:38:27;3.03;;;2.40;;
13114;SDS011;6623;52.120;8.660;2023-04-05T10:40:56;4.37;;;2.70;;
13114;SDS011;6623;52.120;8.660;2023-04-05T10:43:29;3.80;;;2.57;;
13114;SDS011;6623;52.120;8.660;2023-04-05T10:45:58;2.97;;;2.13;;
13114;SDS011;6623;52.120;8.660;2023-04-05T10:51:22;3.23;;;2.20;;
13114;SDS011;6623;52.120;8.660;2023-04-05T10:53:48;2.97;;;2.20;;
13114;SDS011;6623;52.120;8.660;2023-04-05T10:56:14;3.60;;;2.40;;
13114;SDS011;6623;52.120;8.660;2023-04-05T10:58:41;3.80;;;2.60;;
13114;SDS011;6623;52.120;8.660;2023-04-05T11:01:07;3.03;;;2.30;;
13114;SDS011;6623;52.120;8.660;2023-04-05T11:06:36;4.17;;;2.73;;
13114;SDS011;6623;52.120;8.660;2023-04-05T11:09:15;2.47;;;2.27;;
13114;SDS011;6623;52.120;8.660;2023-04-05T11:11:43;2.80;;;2.17;;
13114;SDS011;6623;52.120;8.660;2023-04-05T11:14:23;3.07;;;2.30;;
13114;SDS011;6623;52.120;8.660;2023-04-05T11:16:57;3.70;;;2.60;;
13114;SDS011;6623;52.120;8.660;2023-04-05T11:22:11;3.53;;;2.40;;
13114;SDS011;6623;52.120;8.660;2023-04-05T11:24:48;4.30;;;2.30;;
13114;SDS011;6623;52.120;8.660;2023-04-05T11:27:16;2.90;;;2.00;;
13114;SDS011;6623;52.120;8.660;2023-04-05T11:29:49;3.37;;;2.00;;
13114;SDS011;6623;52.120;8.660;2023-04-05T11:32:15;2.77;;;2.17;;
13114;SDS011;6623;52.120;8.660;2023-04-05T11:34:42;3.30;;;2.30;;
13114;SDS011;6623;52.120;8.660;2023-04-05T11:37:08;3.10;;;2.40;;
13114;SDS011;6623;52.120;8.660;2023-04-05T11:39:34;4.07;;;2.43;;
13114;SDS011;6623;52.120;8.660;2023-04-05T11:42:04;6.93;;;2.50;;
13114;SDS011;6623;52.120;8.660;2023-04-05T11:44:38;6.13;;;2.83;;
13114;SDS011;6623;52.120;8.660;2023-04-05T11:47:06;3.37;;;2.53;;
13114;SDS011;6623;52.120;8.660;2023-04-05T11:49:32;3.23;;;2.37;;
13114;SDS011;6623;52.120;8.660;2023-04-05T11:52:08;5.50;;;2.37;;
13114;SDS011;6623;52.120;8.660;2023-04-05T11:54:41;4.37;;;2.37;;
13114;SDS011;6623;52.120;8.660;2023-04-05T11:57:11;2.67;;;2.27;;
13114;SDS011;6623;52.120;8.660;2023-04-05T11:59:38;3.93;;;2.40;;
13114;SDS011;6623;52.120;8.660;2023-04-05T12:02:04;2.90;;;2.23;;
13114;SDS011;6623;52.120;8.660;2023-04-05T12:04:32;4.10;;;2.57;;
13114;SDS011;6623;52.120;8.660;2023-04-05T12:07:07;3.13;;;2.30;;
13114;SDS011;6623;52.120;8.660;2023-04-05T12:09:39;2.57;;;2.20;;
13114;SDS011;6623;52.120;8.660;2023-04-05T12:12:26;3.60;;;2.67;;
13114;SDS011;6623;52.120;8.660;2023-04-05T12:15:00;4.90;;;2.70;;
13114;SDS011;6623;52.120;8.660;2023-04-05T12:17:36;4.43;;;2.60;;
13114;SDS011;6623;52.120;8.660;2023-04-05T12:20:02;2.80;;;2.20;;
13114;SDS011;6623;52.120;8.660;2023-04-05T12:22:29;4.27;;;2.10;;
13114;SDS011;6623;52.120;8.660;2023-04-05T12:24:55;3.80;;;2.30;;
13114;SDS011;6623;52.120;8.660;2023-04-05T12:27:20;5.03;;;2.30;;
13114;SDS011;6623;52.120;8.660;2023-04-05T12:30:08;3.27;;;2.10;;
13114;SDS011;6623;52.120;8.660;2023-04-05T12:35:50;3.23;;;2.33;;
13114;SDS011;6623;52.120;8.660;2023-04-05T12:37:59;4.20;;;2.60;;
13114;SDS011;6623;52.120;8.660;2023-04-05T12:40:27;3.03;;;2.40;;
13114;SDS011;6623;52.120;8.660;2023-04-05T12:42:59;4.30;;;2.30;;
13114;SDS011;6623;52.120;8.660;2023-04-05T12:45:27;3.80;;;2.30;;
13114;SDS011;6623;52.120;8.660;2023-04-05T12:47:56;3.93;;;2.70;;
13114;SDS011;6623;52.120;8.660;2023-04-05T12:50:27;3.93;;;2.40;;
13114;SDS011;6623;52.120;8.660;2023-04-05T12:52:54;3.33;;;2.40;;
13114;SDS011;6623;52.120;8.660;2023-04-05T12:55:21;4.50;;;2.40;;
13114;SDS011;6623;52.120;8.660;2023-04-05T12:57:53;3.63;;;2.37;;
13114;SDS011;6623;52.120;8.660;2023-04-05T13:00:23;3.37;;;2.40;;
13114;SDS011;6623;52.120;8.660;2023-04-05T13:02:50;2.43;;;2.20;;
13114;SDS011;6623;52.120;8.660;2023-04-05T13:05:18;3.30;;;2.50;;
13114;SDS011;6623;52.120;8.660;2023-04-05T13:07:44;3.90;;;2.77;;
13114;SDS011;6623;52.120;8.660;2023-04-05T13:10:10;4.40;;;2.33;;
13114;SDS011;6623;52.120;8.660;2023-04-05T13:12:36;3.60;;;2.37;;
13114;SDS011;6623;52.120;8.660;2023-04-05T13:15:02;3.73;;;2.20;;
13114;SDS011;6623;52.120;8.660;2023-04-05T13:17:27;3.83;;;2.60;;
13114;SDS011;6623;52.120;8.660;2023-04-05T13:19:53;4.63;;;2.30;;
13114;SDS011;6623;52.120;8.660;2023-04-05T13:22:19;2.63;;;2.10;;
13114;SDS011;6623;52.120;8.660;2023-04-05T13:24:45;3.93;;;2.50;;
13114;SDS011;6623;52.120;8.660;2023-04-05T13:27:10;3.90;;;2.40;;
13114;SDS011;6623;52.120;8.660;2023-04-05T13:29:36;3.60;;;2.53;;
13114;SDS011;6623;52.120;8.660;2023-04-05T13:32:01;2.80;;;2.20;;
13114;SDS011;6623;52.120;8.660;2023-04-05T13:34:27;4.47;;;2.47;;
13114;SDS011;6623;52.120;8.660;2023-04-05T13:36:52;2.63;;;2.10;;
13114;SDS011;6623;52.120;8.660;2023-04-05T13:39:18;4.40;;;2.23;;
13114;SDS011;6623;52.120;8.660;2023-04-05T13:41:44;3.37;;;2.37;;
13114;SDS011;6623;52.120;8.660;2023-04-05T13:44:12;4.63;;;2.50;;
13114;SDS011;6623;52.120;8.660;2023-04-05T13:46:41;3.17;;;2.40;;
13114;SDS011;6623;52.120;8.660;2023-04-05T13:49:06;2.97;;;2.27;;
13114;SDS011;6623;52.120;8.660;2023-04-05T13:51:32;3.20;;;2.00;;
13114;SDS011;6623;52.120;8.660;2023-04-05T13:53:59;3.50;;;2.23;;
13114;SDS011;6623;52.120;8.660;2023-04-05T13:56:25;4.87;;;1.90;;
13114;SDS011;6623;52.120;8.660;2023-04-05T13:58:50;5.97;;;2.63;;
13114;SDS011;6623;52.120;8.660;2023-04-05T14:01:16;3.90;;;2.10;;
13114;SDS011;6623;52.120;8.660;2023-04-05T14:03:41;2.93;;;2.20;;
13114;SDS011;6623;52.120;8.660;2023-04-05T14:06:07;3.77;;;2.40;;
13114;SDS011;6623;52.120;8.660;2023-04-05T14:08:32;3.97;;;2.53;;
13114;SDS011;6623;52.120;8.660;2023-04-05T14:10:58;3.70;;;2.67;;
13114;SDS011;6623;52.120;8.660;2023-04-05T14:13:23;3.33;;;2.60;;
13114;SDS011;6623;52.120;8.660;2023-04-05T14:15:49;3.43;;;2.27;;
13114;SDS011;6623;52.120;8.660;2023-04-05T14:18:15;3.83;;;2.47;;
13114;SDS011;6623;52.120;8.660;2023-04-05T14:20:40;5.47;;;2.30;;
13114;SDS011;6623;52.120;8.660;2023-04-05T14:23:06;3.50;;;2.40;;
13114;SDS011;6623;52.120;8.660;2023-04-05T14:25:31;3.27;;;2.47;;
13114;SDS011;6623;52.120;8.660;2023-04-05T14:27:57;2.63;;;2.30;;
13114;SDS011;6623;52.120;8.660;2023-04-05T14:30:22;3.23;;;2.50;;
13114;SDS011;6623;52.120;8.660;2023-04-05T14:32:48;3.77;;;2.60;;
13114;SDS011;6623;52.120;8.660;2023-04-05T14:35:14;2.93;;;2.33;;
13114;SDS011;6623;52.120;8.660;2023-04-05T14:37:39;3.17;;;2.40;;
13114;SDS011;6623;52.120;8.660;2023-04-05T14:40:05;2.93;;;2.57;;
13114;SDS011;6623;52.120;8.660;2023-04-05T14:42:31;3.27;;;2.50;;
13114;SDS011;6623;52.120;8.660;2023-04-05T14:44:56;4.10;;;2.53;;
13114;SDS011;6623;52.120;8.660;2023-04-05T14:47:22;2.80;;;2.37;;
13114;SDS011;6623;52.120;8.660;2023-04-05T14:49:47;4.63;;;2.60;;
13114;SDS011;6623;52.120;8.660;2023-04-05T14:52:13;3.77;;;2.53;;
13114;SDS011;6623;52.120;8.660;2023-04-05T14:54:38;5.83;;;2.57;;
13114;SDS011;6623;52.120;8.660;2023-04-05T14:57:04;3.00;;;2.40;;
13114;SDS011;6623;52.120;8.660;2023-04-05T14:59:29;3.13;;;2.37;;
13114;SDS011;6623;52.120;8.660;2023-04-05T15:01:55;3.37;;;2.70;;
13114;SDS011;6623;52.120;8.660;2023-04-05T15:04:21;3.57;;;2.57;;
13114;SDS011;6623;52.120;8.660;2023-04-05T15:06:46;3.43;;;2.57;;
13114;SDS011;6623;52.120;8.660;2023-04-05T15:09:12;4.00;;;2.30;;
13114;SDS011;6623;52.120;8.660;2023-04-05T15:11:37;3.17;;;2.50;;
13114;SDS011;6623;52.120;8.660;2023-04-05T15:14:04;3.03;;;2.20;;
13114;SDS011;6623;52.120;8.660;2023-04-05T15:16:30;3.27;;;2.40;;
13114;SDS011;6623;52.120;8.660;2023-04-05T15:18:56;3.77;;;2.37;;
13114;SDS011;6623;52.120;8.660;2023-04-05T15:21:23;3.77;;;2.37;;
13114;SDS011;6623;52.120;8.660;2023-04-05T15:23:49;4.33;;;2.27;;
13114;SDS011;6623;52.120;8.660;2023-04-05T15:26:15;4.20;;;2.40;;
13114;SDS011;6623;52.120;8.660;2023-04-05T15:28:40;4.97;;;2.53;;
13114;SDS011;6623;52.120;8.660;2023-04-05T15:31:06;3.30;;;2.33;;
13114;SDS011;6623;52.120;8.660;2023-04-05T15:33:31;3.00;;;2.50;;